createdAt,value
2019-03-28T00:01:52.498Z,99830.95
2019-03-28T00:04:57.231Z,99820.68
2019-03-28T00:08:01.998Z,99828.65
2019-03-28T00:11:06.487Z,99819.00
2019-03-28T00:14:11.225Z,99824.04
2019-03-28T00:17:15.656Z,99821.91
2019-03-28T00:20:20.094Z,99819.32
2019-03-28T00:23:34.901Z,99820.23
2019-03-28T00:26:39.669Z,99819.32
2019-03-28T00:29:44.102Z,99819.60
2019-03-28T00:32:48.566Z,99818.30
2019-03-28T00:35:52.995Z,99821.10
2019-03-28T00:38:57.432Z,99813.94
2019-03-28T00:42:01.865Z,99811.94
2019-03-28T00:45:08.372Z,99809.48
2019-03-28T00:48:13.090Z,99807.25
2019-03-28T00:51:17.820Z,99808.95
2019-03-28T00:54:22.260Z,99808.50
2019-03-28T00:57:26.690Z,99806.52
2019-03-28T01:00:31.399Z,99803.00
2019-03-28T01:03:36.332Z,99815.05
2019-03-28T01:06:41.120Z,99821.75
2019-03-28T01:09:45.560Z,99810.06
2019-03-28T01:12:49.996Z,99810.63
2019-03-28T01:15:54.740Z,99810.96
2019-03-28T01:18:59.479Z,99809.55
2019-03-28T01:22:03.903Z,99801.97
2019-03-28T01:25:08.681Z,99804.57
2019-03-28T01:28:13.686Z,99800.25
2019-03-28T01:31:18.120Z,99792.44
2019-03-28T01:34:22.559Z,99798.95
2019-03-28T01:37:26.993Z,99802.74
2019-03-28T01:40:31.779Z,99801.80
2019-03-28T01:43:36.203Z,99806.27
2019-03-28T01:46:40.926Z,99795.87
2019-03-28T01:49:45.367Z,99798.69
2019-03-28T01:52:49.797Z,99788.50
2019-03-28T01:55:54.505Z,99793.77
2019-03-28T01:58:59.502Z,99794.28
2019-03-28T02:02:03.949Z,99796.00
2019-03-28T02:05:08.651Z,99787.96
2019-03-28T02:08:13.076Z,99792.50
2019-03-28T02:11:17.512Z,99798.96
2019-03-28T02:14:22.184Z,99797.73
2019-03-28T02:17:26.623Z,99795.34
2019-03-28T02:20:31.065Z,99794.55
2019-03-28T02:23:36.236Z,99791.23
2019-03-28T02:26:41.001Z,99796.50
2019-03-28T02:29:45.724Z,99797.43
2019-03-28T02:32:50.453Z,99793.02
2019-03-28T02:35:54.884Z,99801.30
2019-03-28T02:38:59.311Z,99794.71
2019-03-28T02:42:03.752Z,99793.69
2019-03-28T02:45:08.604Z,99792.31
2019-03-28T02:48:13.293Z,99800.31
2019-03-28T02:51:18.064Z,99793.32
2019-03-28T02:54:22.495Z,99799.05
2019-03-28T02:57:40.174Z,99798.36
2019-03-28T03:00:33.448Z,99792.47
2019-03-28T03:03:37.862Z,99790.13
2019-03-28T03:06:42.300Z,99787.89
2019-03-28T03:09:46.740Z,99787.78
2019-03-28T03:12:51.174Z,99785.81
2019-03-28T03:15:56.759Z,99779.22
2019-03-28T03:19:01.571Z,99782.81
2019-03-28T03:22:06.353Z,99788.16
2019-03-28T03:25:11.703Z,99791.35
2019-03-28T03:28:16.428Z,99786.55
2019-03-28T03:31:22.073Z,99795.95
2019-03-28T03:34:27.080Z,99790.66
2019-03-28T03:37:31.544Z,99791.11
2019-03-28T03:40:35.986Z,99795.37
2019-03-28T03:43:40.710Z,99792.97
2019-03-28T03:46:45.141Z,99792.86
2019-03-28T03:49:49.580Z,99784.88
2019-03-28T03:52:54.021Z,99788.05
2019-03-28T03:55:58.449Z,99786.84
2019-03-28T03:59:02.886Z,99782.16
2019-03-28T04:02:07.311Z,99788.20
2019-03-28T04:05:12.650Z,99780.60
2019-03-28T04:08:17.163Z,99790.39
2019-03-28T04:11:21.947Z,99784.36
2019-03-28T04:14:26.674Z,99795.68
2019-03-28T04:17:31.105Z,99792.16
2019-03-28T04:20:35.601Z,99792.50
2019-03-28T04:23:40.354Z,99796.09
2019-03-28T04:26:45.082Z,99792.94
2019-03-28T04:29:49.821Z,99802.38
2019-03-28T04:32:54.258Z,99800.07
2019-03-28T04:35:58.686Z,99810.44
2019-03-28T04:39:05.136Z,99813.80
2019-03-28T04:42:09.566Z,99817.47
2019-03-28T04:45:14.002Z,99811.42
2019-03-28T04:48:18.712Z,99814.45
2019-03-28T04:51:23.206Z,99816.00
2019-03-28T04:54:27.966Z,99821.44
2019-03-28T04:57:32.397Z,99822.80
2019-03-28T05:00:36.834Z,99822.49
2019-03-28T05:03:41.268Z,99813.66
2019-03-28T05:06:45.696Z,99821.03
2019-03-28T05:09:50.353Z,99820.34
2019-03-28T05:12:55.121Z,99824.00
2019-03-28T05:15:59.859Z,99829.95
2019-03-28T05:19:04.584Z,99830.52
2019-03-28T05:22:09.022Z,99837.17
2019-03-28T05:25:13.453Z,99846.97
2019-03-28T05:28:18.165Z,99844.33
2019-03-28T05:31:22.591Z,99847.61
2019-03-28T05:34:27.036Z,99845.95
2019-03-28T05:37:31.489Z,99840.77
2019-03-28T05:40:36.602Z,99843.27
2019-03-28T05:43:41.302Z,99840.01
2019-03-28T05:46:45.789Z,99845.01
2019-03-28T05:49:50.563Z,99849.61
2019-03-28T05:52:55.290Z,99857.07
2019-03-28T05:55:59.721Z,99858.24
2019-03-28T05:59:10.819Z,99857.29
2019-03-28T06:02:10.588Z,99859.73
2019-03-28T06:05:15.747Z,99866.28
2019-03-28T06:08:20.200Z,99868.02
2019-03-28T06:11:24.901Z,99864.97
2019-03-28T06:14:29.637Z,99869.81
2019-03-28T06:17:34.366Z,99870.28
2019-03-28T06:20:38.802Z,99869.19
2019-03-28T06:23:43.238Z,99858.81
2019-03-28T06:26:49.946Z,99853.95
2019-03-28T06:29:54.111Z,99855.92
2019-03-28T06:32:59.103Z,99854.98
2019-03-28T06:36:03.886Z,99849.08
2019-03-28T06:39:08.328Z,99854.24
2019-03-28T06:42:12.768Z,99857.90
2019-03-28T06:45:17.557Z,99846.95
2019-03-28T06:48:22.005Z,99846.61
2019-03-28T06:51:26.714Z,99845.40
2019-03-28T06:54:31.468Z,99836.77
2019-03-28T06:57:36.176Z,99831.33
2019-03-28T07:00:40.646Z,99834.48
2019-03-28T07:03:47.370Z,99832.65
2019-03-28T07:06:51.796Z,99831.08
2019-03-28T07:09:56.250Z,99836.02
2019-03-28T07:13:00.962Z,99828.89
2019-03-28T07:16:05.797Z,99839.04
2019-03-28T07:19:10.237Z,99839.58
2019-03-28T07:22:14.756Z,99840.02
2019-03-28T07:25:19.477Z,99833.13
2019-03-28T07:28:23.907Z,99839.61
2019-03-28T07:31:28.353Z,99839.45
2019-03-28T07:34:33.055Z,99837.42
2019-03-28T07:37:38.549Z,99838.30
2019-03-28T07:40:43.537Z,99835.54
2019-03-28T07:43:47.984Z,99836.16
2019-03-28T07:46:52.438Z,99835.38
2019-03-28T07:49:56.955Z,99826.94
2019-03-28T07:53:01.388Z,99825.85
2019-03-28T07:56:06.164Z,99828.23
2019-03-28T07:59:10.890Z,99827.17
2019-03-28T08:02:15.328Z,99828.56
2019-03-28T08:05:19.840Z,99822.02
2019-03-28T08:08:24.568Z,99820.55
2019-03-28T08:11:29.334Z,99816.11
2019-03-28T08:14:33.791Z,99818.51
2019-03-28T08:17:38.222Z,99821.93
2019-03-28T08:20:42.688Z,99820.84
2019-03-28T08:23:47.420Z,99819.23
2019-03-28T08:26:51.852Z,99829.93
2019-03-28T08:29:57.859Z,99822.08
2019-03-28T08:33:04.160Z,99831.39
2019-03-28T08:36:08.695Z,99818.30
2019-03-28T08:39:13.410Z,99825.24
2019-03-28T08:42:17.867Z,99819.41
2019-03-28T08:45:22.685Z,99822.58
2019-03-28T08:48:27.405Z,99820.80
2019-03-28T08:51:32.882Z,99821.91
2019-03-28T08:54:37.581Z,99824.97
2019-03-28T08:57:42.023Z,99820.38
2019-03-28T09:00:52.442Z,99823.16
2019-03-28T09:03:53.311Z,99822.28
2019-03-28T09:06:57.761Z,99822.42
2019-03-28T09:10:02.197Z,99820.79
2019-03-28T09:13:06.652Z,99819.06
2019-03-28T09:16:11.140Z,99816.13
2019-03-28T09:19:15.620Z,99821.37
2019-03-28T09:22:20.359Z,99809.56
2019-03-28T09:25:24.795Z,99815.22
2019-03-28T09:28:29.516Z,99809.62
2019-03-28T09:31:33.960Z,99807.11
2019-03-28T09:34:38.671Z,99809.33
2019-03-28T09:37:43.118Z,99807.38
2019-03-28T09:40:47.936Z,99816.06
2019-03-28T09:43:55.523Z,99805.55
2019-03-28T09:46:58.829Z,99800.20
2019-03-28T09:50:03.837Z,99801.98
2019-03-28T09:53:08.288Z,99795.79
2019-03-28T09:56:12.727Z,99802.74
2019-03-28T09:59:17.170Z,99801.52
2019-03-28T10:02:21.612Z,99798.08
2019-03-28T10:05:26.050Z,99802.08
2019-03-28T10:08:30.497Z,99795.00
2019-03-28T10:11:35.244Z,99794.24
2019-03-28T10:14:39.676Z,99793.21
2019-03-28T10:17:44.394Z,99787.23
2019-03-28T10:20:48.838Z,99794.30
2019-03-28T10:23:53.286Z,99788.61
2019-03-28T10:26:58.075Z,99781.39
2019-03-28T10:30:08.310Z,99780.30
2019-03-28T10:33:13.381Z,99785.79
2019-03-28T10:36:17.817Z,99780.59
2019-03-28T10:39:22.307Z,99779.36
2019-03-28T10:42:26.798Z,99772.00
2019-03-28T10:45:33.591Z,99780.23
2019-03-28T10:48:37.874Z,99783.66
2019-03-28T10:51:42.386Z,99779.93
2019-03-28T10:54:46.861Z,99776.39
2019-03-28T10:57:51.666Z,99771.30
2019-03-28T11:00:56.532Z,99772.61
2019-03-28T11:04:01.314Z,99764.52
2019-03-28T11:07:05.800Z,99762.33
2019-03-28T11:10:10.439Z,99750.92
2019-03-28T11:13:14.939Z,99753.88
2019-03-28T11:16:19.408Z,99745.19
2019-03-28T11:19:23.902Z,99751.20
2019-03-28T11:22:28.378Z,99735.27
2019-03-28T11:25:32.919Z,99752.28
2019-03-28T11:28:37.740Z,99744.23
2019-03-28T11:31:47.768Z,99740.95
2019-03-28T11:34:48.425Z,99737.72
2019-03-28T11:37:52.909Z,99735.79
2019-03-28T11:40:57.386Z,99727.44
2019-03-28T11:44:01.871Z,99725.80
2019-03-28T11:47:06.636Z,99731.45
2019-03-28T11:50:12.021Z,99726.36
2019-03-28T11:53:16.639Z,99723.12
2019-03-28T11:56:21.441Z,99727.71
2019-03-28T11:59:25.932Z,99727.73
2019-03-28T12:02:30.723Z,99729.27
2019-03-28T12:05:35.176Z,99727.32
2019-03-28T12:08:39.664Z,99719.33
2019-03-28T12:11:44.139Z,99710.95
2019-03-28T12:14:48.625Z,99715.42
2019-03-28T12:17:53.106Z,99703.73
2019-03-28T12:20:57.581Z,99704.54
2019-03-28T12:24:02.068Z,99709.09
2019-03-28T12:27:06.559Z,99709.22
2019-03-28T12:30:15.791Z,99707.14
2019-03-28T12:33:19.546Z,99716.77
2019-03-28T12:36:24.274Z,99704.46
2019-03-28T12:39:28.922Z,99705.89
2019-03-28T12:42:33.403Z,99704.98
2019-03-28T12:45:37.880Z,99704.98
2019-03-28T12:48:42.362Z,99702.98
2019-03-28T12:51:47.220Z,99701.09
2019-03-28T12:54:52.042Z,99695.55
2019-03-28T12:57:56.789Z,99701.95
2019-03-28T13:01:02.015Z,99700.70
2019-03-28T13:04:06.577Z,99702.88
2019-03-28T13:07:11.386Z,99690.75
2019-03-28T13:10:16.111Z,99692.91
2019-03-28T13:13:20.943Z,99692.41
2019-03-28T13:16:25.428Z,99689.59
2019-03-28T13:19:29.910Z,99694.27
2019-03-28T13:22:34.378Z,99689.45
2019-03-28T13:25:38.858Z,99685.73
2019-03-28T13:28:43.339Z,99681.72
2019-03-28T13:31:47.810Z,99683.05
2019-03-28T13:34:52.795Z,99672.23
2019-03-28T13:37:57.767Z,99673.59
2019-03-28T13:41:02.254Z,99670.06
2019-03-28T13:44:06.741Z,99668.72
2019-03-28T13:47:11.544Z,99673.04
2019-03-28T13:50:18.071Z,99665.47
2019-03-28T13:53:22.851Z,99662.65
2019-03-28T13:56:27.686Z,99662.92
2019-03-28T13:59:35.226Z,99660.08
2019-03-28T14:02:38.369Z,99656.55
2019-03-28T14:05:43.102Z,99663.28
2019-03-28T14:08:47.602Z,99661.88
2019-03-28T14:11:52.075Z,99661.28
2019-03-28T14:14:56.564Z,99661.31
2019-03-28T14:18:01.027Z,99655.64
2019-03-28T14:21:05.582Z,99658.60
2019-03-28T14:24:11.729Z,99655.68
2019-03-28T14:27:16.278Z,99658.41
2019-03-28T14:30:20.765Z,99656.22
2019-03-28T14:33:27.178Z,99660.21
2019-03-28T14:36:31.944Z,99668.38
2019-03-28T14:39:36.427Z,99660.11
2019-03-28T14:42:41.213Z,99661.75
2019-03-28T14:45:45.770Z,99665.93
2019-03-28T14:48:50.671Z,99660.02
2019-03-28T14:51:55.395Z,99656.54
2019-03-28T14:55:01.463Z,99650.05
2019-03-28T14:58:07.558Z,99665.20
2019-03-28T15:01:12.032Z,99666.48
2019-03-28T15:04:16.778Z,99660.44
2019-03-28T15:07:21.257Z,99658.30
2019-03-28T15:10:25.742Z,99659.36
2019-03-28T15:13:30.215Z,99662.82
2019-03-28T15:16:34.987Z,99659.97
2019-03-28T15:19:39.469Z,99657.04
2019-03-28T15:22:43.941Z,99656.53
2019-03-28T15:25:48.429Z,99661.82
2019-03-28T15:28:53.189Z,99663.80
2019-03-28T15:31:57.667Z,99653.56
2019-03-28T15:35:02.446Z,99652.98
2019-03-28T15:38:06.916Z,99650.33
2019-03-28T15:41:11.701Z,99652.76
2019-03-28T15:44:16.249Z,99652.23
2019-03-28T15:47:21.058Z,99647.25
2019-03-28T15:50:25.543Z,99648.86
2019-03-28T15:53:30.017Z,99644.08
2019-03-28T15:56:34.494Z,99649.77
2019-03-28T15:59:38.973Z,99643.71
2019-03-28T16:02:43.461Z,99640.17
2019-03-28T16:05:58.106Z,99643.10
2019-03-28T16:08:54.518Z,99639.73
2019-03-28T16:12:02.857Z,99642.04
2019-03-28T16:15:09.087Z,99648.03
2019-03-28T16:18:14.029Z,99640.80
2019-03-28T16:21:19.465Z,99642.19
2019-03-28T16:24:24.483Z,99640.64
2019-03-28T16:27:29.319Z,99639.83
2019-03-28T16:30:37.638Z,99638.55
2019-03-28T16:33:42.464Z,99636.15
2019-03-28T16:36:46.948Z,99638.84
2019-03-28T16:39:51.431Z,99647.94
2019-03-28T16:42:55.931Z,99647.01
2019-03-28T16:46:00.403Z,99644.92
2019-03-28T16:49:04.884Z,99645.75
2019-03-28T16:52:09.363Z,99642.23
2019-03-28T16:55:25.834Z,99650.29
2019-03-28T16:58:20.469Z,99649.23
2019-03-28T17:01:25.252Z,99655.71
2019-03-28T17:04:30.081Z,99653.39
2019-03-28T17:07:36.720Z,99655.77
2019-03-28T17:10:50.178Z,99657.27
2019-03-28T17:13:54.656Z,99662.72
2019-03-28T17:16:59.563Z,99659.17
2019-03-28T17:20:05.183Z,99655.66
2019-03-28T17:23:10.038Z,99655.83
2019-03-28T17:26:14.875Z,99651.16
2019-03-28T17:29:19.922Z,99649.42
2019-03-28T17:32:24.745Z,99658.29
2019-03-28T17:35:29.816Z,99658.81
2019-03-28T17:38:34.474Z,99663.64
2019-03-28T17:41:39.256Z,99657.69
2019-03-28T17:44:43.785Z,99660.84
2019-03-28T17:47:48.281Z,99666.67
2019-03-28T17:50:53.034Z,99656.88
2019-03-28T17:53:57.734Z,99665.88
2019-03-28T17:57:02.597Z,99674.56
2019-03-28T18:00:09.183Z,99675.55
2019-03-28T18:03:14.104Z,99681.84
2019-03-28T18:06:18.576Z,99674.38
2019-03-28T18:09:23.057Z,99676.55
2019-03-28T18:12:29.625Z,99679.50
2019-03-28T18:15:34.356Z,99686.14
2019-03-28T18:18:38.938Z,99687.90
2019-03-28T18:21:45.143Z,99688.33
2019-03-28T18:24:49.710Z,99691.89
2019-03-28T18:27:54.200Z,99700.34
2019-03-28T18:30:58.686Z,99699.77
2019-03-28T18:34:03.453Z,99704.41
2019-03-28T18:37:08.386Z,99707.72
2019-03-28T18:40:13.203Z,99713.98
2019-03-28T18:43:17.684Z,99711.42
2019-03-28T18:46:22.486Z,99714.38
2019-03-28T18:49:27.319Z,99718.48
2019-03-28T18:52:31.790Z,99727.10
2019-03-28T18:55:36.262Z,99720.19
2019-03-28T18:58:40.750Z,99719.67
2019-03-28T19:01:45.217Z,99726.08
2019-03-28T19:04:49.705Z,99724.16
2019-03-28T19:07:54.181Z,99727.63
2019-03-28T19:10:58.655Z,99728.09
2019-03-28T19:14:03.432Z,99727.27
2019-03-28T19:17:08.060Z,99733.30
2019-03-28T19:20:12.685Z,99725.34
2019-03-28T19:23:17.509Z,99734.91
2019-03-28T19:26:22.158Z,99731.80
2019-03-28T19:29:26.653Z,99735.83
2019-03-28T19:32:31.133Z,99736.63
2019-03-28T19:35:36.752Z,99737.77
2019-03-28T19:38:42.181Z,99736.42
2019-03-28T19:41:47.369Z,99735.38
2019-03-28T19:44:52.998Z,99730.38
2019-03-28T19:47:57.548Z,99727.13
2019-03-28T19:51:02.256Z,99730.91
2019-03-28T19:54:07.073Z,99735.56
2019-03-28T19:57:12.378Z,99737.67
2019-03-28T20:00:18.025Z,99735.98
2019-03-28T20:03:23.590Z,99742.02
2019-03-28T20:06:28.456Z,99730.70
2019-03-28T20:09:32.944Z,99735.14
2019-03-28T20:12:37.425Z,99735.11
2019-03-28T20:15:41.905Z,99736.75
2019-03-28T20:18:46.656Z,99732.85
2019-03-28T20:21:51.486Z,99735.36
2019-03-28T20:24:58.261Z,99737.45
2019-03-28T20:28:02.982Z,99731.70
2019-03-28T20:31:07.544Z,99730.44
2019-03-28T20:34:12.358Z,99731.73
2019-03-28T20:37:16.835Z,99727.75
2019-03-28T20:40:21.382Z,99725.66
2019-03-28T20:43:26.267Z,99726.60
2019-03-28T20:46:31.322Z,99720.83
2019-03-28T20:49:35.808Z,99721.50
2019-03-28T20:52:40.646Z,99728.41
2019-03-28T20:55:45.470Z,99732.55
2019-03-28T20:58:49.986Z,99742.90
2019-03-28T21:01:54.471Z,99740.58
2019-03-28T21:04:59.359Z,99737.69
2019-03-28T21:08:04.461Z,99733.91
2019-03-28T21:11:08.943Z,99738.73
2019-03-28T21:14:13.436Z,99744.16
2019-03-28T21:17:18.177Z,99738.59
2019-03-28T21:20:23.015Z,99743.63
2019-03-28T21:23:27.844Z,99731.88
2019-03-28T21:26:32.539Z,99727.66
2019-03-28T21:29:48.294Z,99722.59
2019-03-28T21:32:54.657Z,99721.19
2019-03-28T21:35:49.905Z,99722.39
2019-03-28T21:38:54.638Z,99715.62
2019-03-28T21:41:59.093Z,99721.42
2019-03-28T21:45:03.915Z,99724.17
2019-03-28T21:48:08.358Z,99722.66
2019-03-28T21:51:13.154Z,99719.37
2019-03-28T21:54:17.575Z,99719.02
2019-03-28T21:57:22.299Z,99719.78
2019-03-28T22:00:27.034Z,99715.87
2019-03-28T22:03:31.467Z,99724.75
2019-03-28T22:06:42.695Z,99722.06
2019-03-28T22:09:42.350Z,99719.46
2019-03-28T22:12:46.791Z,99715.52
2019-03-28T22:15:51.502Z,99719.33
2019-03-28T22:18:55.933Z,99716.15
2019-03-28T22:22:01.959Z,99713.33
2019-03-28T22:25:07.632Z,99712.45
2019-03-28T22:28:12.062Z,99707.38
2019-03-28T22:31:16.538Z,99703.34
2019-03-28T22:34:20.979Z,99703.48
2019-03-28T22:37:25.745Z,99697.92
2019-03-28T22:40:30.322Z,99695.19
2019-03-28T22:43:38.610Z,99689.87
2019-03-28T22:46:42.186Z,99689.05
2019-03-28T22:49:46.637Z,99684.56
2019-03-28T22:52:51.928Z,99691.84
2019-03-28T22:55:56.687Z,99687.87
2019-03-28T22:59:01.207Z,99682.88
2019-03-28T23:02:05.781Z,99684.88
2019-03-28T23:05:11.129Z,99681.53
2019-03-28T23:08:15.583Z,99682.67
2019-03-28T23:11:20.041Z,99679.98
2019-03-28T23:14:24.467Z,99695.63
2019-03-28T23:17:28.909Z,99687.58
2019-03-28T23:20:33.851Z,99679.73
2019-03-28T23:23:38.470Z,99683.25
2019-03-28T23:26:42.918Z,99684.30
2019-03-28T23:29:47.614Z,99685.31
2019-03-28T23:32:52.052Z,99678.58
2019-03-28T23:35:56.758Z,99676.69
2019-03-28T23:39:01.188Z,99679.45
2019-03-28T23:42:05.631Z,99679.81
2019-03-28T23:45:12.199Z,99672.98
2019-03-28T23:48:16.912Z,99671.13
2019-03-28T23:51:21.641Z,99672.57
2019-03-28T23:54:27.015Z,99673.50
2019-03-28T23:57:31.800Z,99675.45
